Nate Harrison Grade (214) Station Data

Red Flag Warning: No
Fire Weather Zone: 250
SDGE Region: North East
Lat/Lon: 33.322/-116.962

Observations

Time Wind Speed/Gust Temp(F) RH Fuel Moist Fuel Temp(F) Dewpt(F) Tmax(F) Tmin(F) Accum Precip 10-min Precip SL Press(mb)
6/22 4:50am 211 0 G 2 69° 54% - - 52° 78.2° 68.3° - - -
6/22 4:40am 0 0 G 0 69° 50% - - 50° 78.2° 68.3° - - -
6/22 4:30am 0 0 G 0 69° 51% - - 50° 78.2° 68.7° - - -
6/22 4:20am 0 0 G 0 70° 54% - - 52° 78.2° 68.9° - - -
6/22 4:10am 29 0 G 2 70° 52% - - 51° 78.2° 69° - - -
6/22 4:00am 16 0 G 2 70° 42% - - 46° 78.2° 69° - - -
6/22 3:50am 14 2 G 3 71° 34% - - 41° 78.2° 69° - - -
6/22 3:40am 12 2 G 2 70° 35% - - 42° 78.2° 69° - - -
6/22 3:30am 6 1 G 2 70° 43% - - 46° 78.2° 69° - - -
6/22 3:20am 0 0 G 0 70° 50% - - 51° 78.2° 69° - - -
6/22 3:10am 0 0 G 0 70° 49% - - 50° 78.2° 69° - - -
6/22 3:00am 162 1 G 2 70° 54% - - 52° 78.2° 69° - - -
6/22 2:50am 42 1 G 2 71° 38% - - 44° 78.2° 70° - - -
6/22 2:40am 16 0 G 2 70° 47% - - 49° 78.2° 70° - - -
6/22 2:30am 0 0 G 0 71° 48% - - 50° 78.2° 70° - - -
6/22 2:20am 0 0 G 0 71° 46% - - 50° 78.2° 70.4° - - -
6/22 2:10am 0 0 G 0 71° 45% - - 49° 78.2° 70.4° - - -
6/22 2:00am 9 0 G 1 71° 55% - - 54° 78.2° 70.4° - - -
6/22 1:50am 0 0 G 0 72° 41% - - 47° 78.2° 71.4° - - -
6/22 1:40am 0 0 G 0 73° 39% - - 47° 78.2° 72.4° - - -
6/22 1:30am 192 0 G 2 74° 43% - - 50° 78.2° 72.4° - - -
6/22 1:20am 119 1 G 2 74° 37% - - 46° 78.2° 72.4° - - -
6/22 1:10am 21 0 G 2 73° 45% - - 50° 78.2° 72.4° - - -
6/22 1:00am 0 0 G 0 73° 46% - - 51° 78.2° 72.6° - - -
6/22 12:50am 348 1 G 3 74° 39% - - 47° 78.2° 72.9° - - -
6/22 12:40am 10 1 G 3 73° 36% - - 45° 78.2° 72.9° - - -
6/22 12:30am 0 0 G 0 75° 37% - - 47° 78.2° 73.4° - - -
6/22 12:20am 33 1 G 2 77° 30% - - 44° 78.2° 75° - - -
6/22 12:10am 36 2 G 3 76° 33% - - 45° 77.4° 75° - - -
6/22 12:00am 70 1 G 2 76° 35% - - 47° 95.1° 75° - - -
6/21 11:50pm 37 0 G 2 78° 38% - - 50° 95.1° 75.1° - - -
6/21 11:40pm 31 1 G 2 77° 39% - - 50° 95.1° 75.1° - - -
6/21 11:30pm 121 1 G 2 79° 41% - - 53° 95.1° 75.1° - - -
6/21 11:20pm 17 0 G 2 77° 40% - - 51° 95.1° 75.1° - - -
6/21 11:10pm 117 0 G 2 78° 45% - - 55° 95.1° 75.1° - - -
6/21 11:00pm 121 2 G 4 79° 48% - - 57° 95.1° 75.1° - - -
6/21 10:50pm 72 1 G 3 77° 54% - - 59° 95.1° 75.1° - - -
6/21 10:40pm 160 0 G 2 77° 54% - - 59° 95.1° 75.1° - - -
6/21 10:30pm 144 1 G 2 77° 57% - - 60° 95.1° 75.1° - - -
6/21 10:20pm 0 0 G 0 77° 56% - - 60° 95.1° 75.1° - - -
6/21 10:10pm 131 0 G 2 77° 56% - - 60° 95.1° 75.1° - - -
6/21 10:00pm 0 0 G 0 76° 56% - - 59° 95.1° 75.1° - - -
6/21 9:50pm 0 0 G 0 76° 55% - - 59° 95.1° 75.1° - - -
6/21 9:40pm 0 0 G 0 76° 58% - - 60° 95.1° 75.1° - - -
6/21 9:30pm 153 1 G 2 77° 57% - - 60° 95.1° 75.1° - - -
6/21 9:20pm 155 2 G 3 78° 55% - - 60° 95.1° 75.1° - - -
6/21 9:10pm 55 1 G 2 77° 56% - - 60° 95.1° 75.1° - - -
6/21 9:00pm 28 2 G 2 76° 58% - - 60° 95.1° 75.1° - - -
6/21 8:50pm 349 1 G 2 76° 57% - - 60° 95.1° 75.2° - - -
6/21 8:40pm 331 1 G 2 77° 56% - - 60° 95.1° 76.3° - - -
6/21 8:30pm 328 2 G 3 77° 56% - - 60° 95.1° 76.3° - - -
6/21 8:20pm 171 0 G 2 78° 55% - - 60° 95.1° 76.3° - - -
6/21 8:10pm 163 1 G 2 79° 52% - - 60° 95.1° 76.3° - - -
6/21 8:00pm 322 0 G 2 80° 51% - - 60° 95.1° 76.3° - - -
6/21 7:50pm 288 1 G 3 83° 48% - - 61° 95.1° 76.3° - - -
6/21 7:40pm 340 0 G 1 84° 46% - - 61° 95.1° 76.3° - - -
6/21 7:30pm 328 0 G 2 85° 45% - - 61° 95.1° 76.3° - - -
6/21 7:20pm 331 2 G 3 85° 43% - - 60° 95.1° 76.3° - - -
6/21 7:10pm 313 2 G 3 86° 42% - - 60° 95.1° 76.3° - - -
6/21 7:00pm 305 3 G 5 86° 41% - - 60° 95.1° 76.3° - - -
6/21 6:50pm 305 3 G 5 87° 41% - - 60° 95.1° 76.3° - - -
6/21 6:40pm 309 3 G 4 88° 39% - - 60° 95.1° 76.3° - - -
6/21 6:30pm 302 3 G 4 88° 39% - - 60° 95.1° 76.3° - - -
6/21 6:20pm 308 3 G 6 87° 39% - - 59° 95.1° 76.3° - - -
6/21 6:10pm 304 4 G 7 88° 38% - - 59° 95.1° 76.3° - - -
6/21 6:00pm 316 5 G 7 88° 38% - - 59° 95.1° 76.3° - - -
6/21 5:50pm 312 6 G 8 87° 38% - - 58° 95.1° 76.3° - - -
6/21 5:40pm 308 6 G 9 88° 37% - - 58° 95.1° 76.3° - - -
6/21 5:30pm 314 6 G 9 88° 37% - - 58° 95.1° 76.3° - - -
6/21 5:20pm 311 5 G 7 88° 37% - - 58° 95.1° 76.3° - - -
6/21 5:10pm 312 6 G 10 88° 37% - - 59° 95.1° 76.3° - - -
6/21 5:00pm 310 6 G 11 89° 36% - - 58° 95.1° 76.3° - - -
6/21 4:50pm 311 6 G 9 90° 35% - - 58° 95.1° 76.3° - - -
6/21 4:40pm 309 5 G 8 91° 33% - - 58° 95.1° 76.3° - - -
6/21 4:30pm 310 6 G 9 90° 34% - - 58° 95.1° 76.3° - - -
6/21 4:20pm 308 5 G 8 90° 34% - - 58° 95.1° 76.3° - - -
6/21 4:10pm 299 5 G 9 90° 34% - - 58° 95.1° 76.3° - - -
6/21 4:00pm 308 6 G 9 90° 35% - - 58° 95.1° 76.3° - - -
6/21 3:50pm 305 6 G 10 90° 35% - - 59° 95.1° 76.3° - - -
6/21 3:40pm 302 6 G 10 90° 35% - - 59° 95.1° 76.3° - - -
6/21 3:30pm 312 6 G 10 90° 35% - - 59° 95.1° 76.3° - - -
6/21 3:20pm 310 7 G 11 91° 34% - - 58° 95.1° 76.3° - - -
6/21 3:10pm 305 6 G 11 91° 33% - - 58° 95.1° 76.3° - - -
6/21 3:00pm 307 6 G 11 91° 32% - - 57° 95.1° 76.3° - - -
6/21 2:50pm 300 6 G 11 92° 32% - - 57° 95.1° 76.3° - - -
6/21 2:40pm 303 5 G 9 91° 32% - - 58° 95.1° 76.3° - - -
6/21 2:30pm 312 6 G 12 91° 34% - - 59° 95.1° 76.3° - - -
6/21 2:20pm 306 5 G 10 92° 35% - - 60° 95.1° 76.3° - - -
6/21 2:10pm 304 6 G 12 91° 37% - - 61° 95.1° 76.3° - - -
6/21 2:00pm 308 7 G 11 91° 37% - - 61° 95.1° 76.3° - - -
6/21 1:50pm 319 6 G 10 91° 37% - - 61° 95.1° 76.3° - - -
6/21 1:40pm 313 7 G 11 91° 36% - - 61° 95.1° 76.3° - - -
6/21 1:30pm 308 7 G 11 91° 35% - - 60° 95.1° 76.3° - - -
6/21 1:20pm 314 7 G 13 92° 33% - - 59° 95.1° 76.3° - - -
6/21 1:10pm 303 5 G 9 93° 32% - - 59° 95.1° 76.3° - - -
6/21 1:00pm 293 4 G 7 94° 31% - - 59° 95.1° 76.3° - - -
6/21 12:50pm 292 4 G 9 93° 31% - - 58° 94.3° 76.3° - - -
6/21 12:40pm 307 4 G 8 92° 33% - - 58° 94.3° 76.3° - - -
6/21 12:30pm 306 4 G 7 93° 32% - - 58° 94.3° 76.3° - - -
6/21 12:20pm 302 3 G 6 92° 32% - - 58° 94° 76.3° - - -
6/21 12:10pm 316 4 G 8 91° 32% - - 57° 92.3° 76.3° - - -
6/21 12:00pm 297 3 G 5 92° 32% - - 57° 92.3° 76.3° - - -
6/21 11:50am 298 3 G 6 91° 33% - - 57° 91.6° 76.3° - - -
6/21 11:40am 313 3 G 8 90° 33% - - 57° 90.3° 76.3° - - -
6/21 11:30am 311 3 G 6 89° 33% - - 56° 90.2° 76.3° - - -
6/21 11:20am 314 3 G 7 89° 33% - - 56° 90.1° 76.3° - - -
6/21 11:10am 302 3 G 7 88° 33% - - 55° 89.1° 76.3° - - -
6/21 11:00am 297 3 G 6 88° 32% - - 55° 88.8° 76.3° - - -
6/21 10:50am 304 3 G 6 88° 32% - - 55° 88.7° 76.3° - - -
6/21 10:40am 294 2 G 5 87° 34% - - 55° 88.4° 76.3° - - -
6/21 10:30am 302 3 G 5 87° 34% - - 55° 87.9° 76.3° - - -
6/21 10:20am 291 2 G 4 87° 33% - - 54° 87.9° 76.3° - - -
6/21 10:10am 293 2 G 3 86° 34% - - 54° 86.9° 76.3° - - -
6/21 10:00am 285 1 G 3 86° 37% - - 57° 86.9° 76.3° - - -
6/21 9:50am 291 1 G 3 86° 37% - - 56° 86.4° 76.3° - - -
6/21 9:40am 244 0 G 2 85° 41% - - 59° 86.4° 76.3° - - -
6/21 9:30am 272 1 G 2 83° 44% - - 59° 84.1° 76.3° - - -
6/21 9:20am 286 1 G 2 83° 44% - - 58° 84.1° 76.3° - - -
6/21 9:10am 277 0 G 1 83° 42% - - 57° 84° 76.3° - - -
6/21 9:00am 270 0 G 1 83° 37% - - 54° 83.9° 76.3° - - -
6/21 8:50am 205 1 G 2 82° 32% - - 50° 83.9° 76.3° - - -
6/21 8:40am 192 1 G 2 82° 30% - - 47° 83.9° 76.3° - - -
6/21 8:30am 170 0 G 2 81° 32% - - 48° 83.9° 76.3° - - -
6/21 8:20am 0 0 G 0 79° 33% - - 48° 83.9° 76.3° - - -
6/21 8:10am 196 0 G 1 79° 34% - - 48° 83.9° 76.3° - - -
6/21 8:00am 189 0 G 1 79° 32% - - 46° 83.9° 76.3° - - -
6/21 7:50am 0 0 G 0 79° 30% - - 45° 83.9° 76.3° - - -
6/21 7:40am 0 0 G 0 80° 26% - - 42° 83.9° 76.3° - - -
6/21 7:30am 0 0 G 0 80° 26% - - 43° 83.9° 76.3° - - -
6/21 7:20am 168 0 G 1 80° 24% - - 40° 83.9° 76.3° - - -
6/21 7:10am 155 2 G 3 79° 27% - - 43° 83.9° 76.3° - - -
6/21 7:00am 155 1 G 3 81° 22% - - 39° 83.9° 76.3° - - -
6/21 6:50am 112 3 G 4 79° 26% - - 41° 83.9° 76.3° - - -
6/21 6:40am 147 1 G 3 78° 30% - - 43° 83.9° 76.3° - - -
6/21 6:30am 11 2 G 3 77° 30% - - 43° 83.9° 76.6° - - -
6/21 6:20am 355 1 G 3 78° 32% - - 46° 83.9° 76.6° - - -
6/21 6:10am 287 0 G 3 79° 28% - - 42° 83.9° 78° - - -
6/21 6:00am 0 0 G 0 79° 30% - - 45° 83.9° 78.1° - - -
6/21 5:50am 171 1 G 3 80° 29% - - 45° 83.9° 78.1° - - -
6/21 5:40am 48 1 G 3 79° 30% - - 44° 83.9° 78.1° - - -
6/21 5:30am 40 1 G 2 79° 28% - - 43° 83.9° 78.2° - - -
6/21 5:20am 12 1 G 3 79° 27% - - 43° 83.9° 78.2° - - -
6/21 5:10am 176 2 G 3 80° 28% - - 44° 83.9° 78.2° - - -
6/21 5:00am 38 2 G 4 80° 25% - - 41° 83.9° 78.2° - - -
6/21 4:50am 268 1 G 4 80° 28% - - 44° 83.9° 78.2° - - -
6/21 4:40am 74 2 G 4 79° 31% - - 46° 83.9° 78.2° - - -
6/21 4:30am 208 1 G 2 80° 32% - - 47° 83.9° 78.4° - - -
6/21 4:20am 42 0 G 1 79° 30% - - 45° 83.9° 78.4° - - -
6/21 4:10am 173 1 G 2 79° 33% - - 47° 83.9° 78.4° - - -
6/21 4:00am 53 0 G 2 79° 31% - - 46° 83.9° 78.4° - - -
6/21 3:50am 0 0 G 0 79° 36% - - 50° 83.9° 78.4° - - -
6/21 3:40am 167 0 G 2 79° 36% - - 50° 83.9° 78.8° - - -
6/21 3:30am 188 0 G 1 80° 35% - - 50° 83.9° 78.8° - - -
6/21 3:20am 174 2 G 2 80° 34% - - 49° 83.9° 78.8° - - -
6/21 3:10am 146 1 G 2 80° 33% - - 49° 83.9° 78.8° - - -
6/21 3:00am 172 1 G 2 81° 32% - - 48° 83.9° 78.8° - - -
6/21 2:50am 143 1 G 2 81° 31% - - 47° 83.9° 78.8° - - -
6/21 2:40am 120 1 G 2 79° 34% - - 49° 83.9° 78.8° - - -
6/21 2:30am 185 2 G 4 79° 36% - - 50° 83.9° 78.8° - - -
6/21 2:20am 161 0 G 2 80° 36% - - 50° 83.9° 79.2° - - -
6/21 2:10am 187 1 G 3 80° 34% - - 49° 83.9° 79.2° - - -
6/21 2:00am 217 0 G 2 81° 36% - - 51° 83.9° 79.7° - - -
6/21 1:50am 153 0 G 1 81° 34% - - 50° 83.9° 79.7° - - -
6/21 1:40am 49 1 G 2 82° 32% - - 49° 83.9° 79.7° - - -
6/21 1:30am 141 1 G 3 81° 35% - - 51° 83.9° 79.7° - - -
6/21 1:20am 195 2 G 3 83° 33% - - 50° 83.9° 79.7° - - -
6/21 1:10am 137 1 G 3 83° 28% - - 46° 83.9° 79.7° - - -
6/21 1:00am 94 1 G 4 82° 30% - - 47° 83.6° 79.7° - - -
6/21 12:50am 137 2 G 4 82° 30% - - 48° 83.6° 79.7° - - -
6/21 12:40am 153 1 G 3 81° 33% - - 49° 82.1° 79.7° - - -
6/21 12:30am 296 0 G 2 81° 34% - - 51° 82.1° 79.7° - - -
6/21 12:20am 99 0 G 2 81° 36% - - 51° 82° 79.7° - - -
6/21 12:10am 223 1 G 2 81° 37% - - 52° 81.6° 79.9° - - -
6/21 12:00am 124 0 G 2 80° 37% - - 52° 96.3° 74.1° - - -
6/20 11:50pm 43 1 G 4 79° 37% - - 51° 96.3° 74.1° - - -
6/20 11:40pm 19 3 G 4 79° 39% - - 52° 96.3° 74.1° - - -
6/20 11:30pm 3 3 G 5 78° 44% - - 54° 96.3° 74.1° - - -
6/20 11:20pm 350 2 G 3 77° 46% - - 55° 96.3° 74.1° - - -
6/20 11:10pm 254 1 G 2 79° 43% - - 55° 96.3° 74.1° - - -
6/20 11:00pm 0 0 G 0 79° 43% - - 55° 96.3° 74.1° - - -
6/20 10:50pm 0 0 G 0 80° 43% - - 55° 96.3° 74.1° - - -
6/20 10:40pm 239 1 G 2 81° 41% - - 55° 96.3° 74.1° - - -
6/20 10:30pm 184 1 G 2 81° 41% - - 55° 96.3° 74.1° - - -
6/20 10:20pm 306 0 G 2 81° 41% - - 55° 96.3° 74.1° - - -
6/20 10:10pm 87 1 G 3 82° 38% - - 54° 96.3° 74.1° - - -
6/20 10:00pm 63 2 G 4 82° 39% - - 54° 96.3° 74.1° - - -
6/20 9:50pm 33 1 G 3 82° 38% - - 54° 96.3° 74.1° - - -
6/20 9:40pm 156 1 G 4 84° 37% - - 55° 96.3° 74.1° - - -
6/20 9:30pm 136 3 G 4 84° 37% - - 55° 96.3° 74.1° - - -
6/20 9:20pm 139 1 G 3 84° 35% - - 54° 96.3° 74.1° - - -
6/20 9:10pm 148 1 G 2 85° 35% - - 54° 96.3° 74.1° - - -
6/20 9:00pm 138 1 G 2 86° 35% - - 55° 96.3° 74.1° - - -
6/20 8:50pm 147 3 G 4 86° 34% - - 55° 96.3° 74.1° - - -
6/20 8:40pm 146 3 G 4 87° 34% - - 55° 96.3° 74.1° - - -
6/20 8:30pm 147 3 G 4 86° 35% - - 55° 96.3° 74.1° - - -
6/20 8:20pm 90 2 G 2 86° 35% - - 55° 96.3° 74.1° - - -
6/20 8:10pm 130 1 G 2 87° 31% - - 52° 96.3° 74.1° - - -
6/20 8:00pm 0 0 G 0 87° 32% - - 54° 96.3° 74.1° - - -
6/20 7:50pm 0 0 G 0 88° 32% - - 54° 96.3° 74.1° - - -
6/20 7:40pm 336 0 G 2 89° 32% - - 55° 96.3° 74.1° - - -
6/20 7:30pm 330 2 G 3 89° 31% - - 55° 96.3° 74.1° - - -
6/20 7:20pm 317 2 G 3 90° 30% - - 55° 96.3° 74.1° - - -
6/20 7:10pm 320 2 G 3 91° 30% - - 55° 96.3° 74.1° - - -
6/20 7:00pm 315 2 G 4 91° 29% - - 54° 96.3° 74.1° - - -
6/20 6:50pm 318 3 G 5 90° 31% - - 55° 96.3° 74.1° - - -
6/20 6:40pm 306 4 G 6 90° 30% - - 55° 96.3° 74.1° - - -
6/20 6:30pm 307 4 G 6 90° 31% - - 55° 96.3° 74.1° - - -
6/20 6:20pm 313 4 G 6 90° 31% - - 55° 96.3° 74.1° - - -
6/20 6:10pm 313 5 G 8 90° 31% - - 55° 96.3° 74.1° - - -
6/20 6:00pm 306 5 G 8 90° 31% - - 56° 96.3° 74.1° - - -